createdAt,value
2019-03-29T00:00:06.148Z,1028.69
2019-03-29T00:01:58.957Z,1028.67
2019-03-29T00:02:59.014Z,1028.70
2019-03-29T00:04:52.260Z,1028.64
2019-03-29T00:05:52.050Z,1028.69
2019-03-29T00:07:45.053Z,1028.64
2019-03-29T00:08:45.093Z,1028.62
2019-03-29T00:10:38.115Z,1028.67
2019-03-29T00:11:38.222Z,1028.68
2019-03-29T00:13:31.132Z,1028.68
2019-03-29T00:14:31.190Z,1028.62
2019-03-29T00:16:24.212Z,1028.66
2019-03-29T00:17:24.256Z,1028.64
2019-03-29T00:19:17.270Z,1028.63
2019-03-29T00:20:17.304Z,1028.61
2019-03-29T00:22:10.340Z,1028.62
2019-03-29T00:23:10.349Z,1028.61
2019-03-29T00:25:03.336Z,1028.58
2019-03-29T00:26:03.385Z,1028.54
2019-03-29T00:27:56.389Z,1028.56
2019-03-29T00:28:56.428Z,1028.53
2019-03-29T00:30:49.407Z,1028.53
2019-03-29T00:31:49.463Z,1028.52
2019-03-29T00:33:42.472Z,1028.46
2019-03-29T00:34:42.502Z,1028.47
2019-03-29T00:36:35.481Z,1028.43
2019-03-29T00:37:35.560Z,1028.45
2019-03-29T00:39:28.547Z,1028.42
2019-03-29T00:40:28.583Z,1028.35
2019-03-29T00:42:21.568Z,1028.36
2019-03-29T00:43:21.625Z,1028.32
2019-03-29T00:45:14.632Z,1028.32
2019-03-29T00:46:14.659Z,1028.27
2019-03-29T00:48:07.639Z,1028.23
2019-03-29T00:49:07.700Z,1028.23
2019-03-29T00:51:00.698Z,1028.18
2019-03-29T00:52:00.736Z,1028.18
2019-03-29T00:53:53.740Z,1028.11
2019-03-29T00:54:54.156Z,1028.12
2019-03-29T00:56:46.760Z,1028.11
2019-03-29T00:57:46.816Z,1028.12
2019-03-29T00:59:40.189Z,1028.05
2019-03-29T01:00:39.861Z,1028.06
2019-03-29T01:02:32.873Z,1028.03
2019-03-29T01:03:32.902Z,1028.03
2019-03-29T01:05:26.087Z,1028.05
2019-03-29T01:06:25.942Z,1028.02
2019-03-29T01:08:18.933Z,1028.02
2019-03-29T01:09:18.985Z,1028.00
2019-03-29T01:11:11.987Z,1027.96
2019-03-29T01:12:12.039Z,1027.95
2019-03-29T01:14:05.011Z,1027.95
2019-03-29T01:15:05.071Z,1027.93
2019-03-29T01:16:58.053Z,1027.88
2019-03-29T01:17:58.100Z,1027.85
2019-03-29T01:19:51.123Z,1027.87
2019-03-29T01:20:51.141Z,1027.82
2019-03-29T01:22:44.158Z,1027.83
2019-03-29T01:23:44.205Z,1027.81
2019-03-29T01:25:37.194Z,1027.79
2019-03-29T01:26:37.269Z,1027.77
2019-03-29T01:28:30.250Z,1027.77
2019-03-29T01:29:30.948Z,1027.78
2019-03-29T01:31:23.270Z,1027.73
2019-03-29T01:32:23.327Z,1027.75
2019-03-29T01:34:16.992Z,1027.71
2019-03-29T01:35:16.374Z,1027.72
2019-03-29T01:37:09.382Z,1027.72
2019-03-29T01:38:21.101Z,1027.68
2019-03-29T01:40:02.430Z,1027.69
2019-03-29T01:41:02.472Z,1027.66
2019-03-29T01:42:55.470Z,1027.67
2019-03-29T01:43:55.510Z,1027.64
2019-03-29T01:45:48.498Z,1027.58
2019-03-29T01:46:48.550Z,1027.61
2019-03-29T01:48:41.544Z,1027.61
2019-03-29T01:49:42.006Z,1027.61
2019-03-29T01:51:34.604Z,1027.62
2019-03-29T01:52:34.628Z,1027.63
2019-03-29T01:54:27.622Z,1027.59
2019-03-29T01:55:27.695Z,1027.57
2019-03-29T01:57:20.680Z,1027.54
2019-03-29T01:58:20.724Z,1027.56
2019-03-29T02:00:13.728Z,1027.51
2019-03-29T02:01:13.756Z,1027.53
2019-03-29T02:03:06.742Z,1027.44
2019-03-29T02:04:08.087Z,1027.42
2019-03-29T02:05:59.804Z,1027.41
2019-03-29T02:06:59.839Z,1027.40
2019-03-29T02:08:52.825Z,1027.33
2019-03-29T02:09:52.881Z,1027.35
2019-03-29T02:11:45.893Z,1027.39
2019-03-29T02:12:45.920Z,1027.37
2019-03-29T02:14:38.900Z,1027.34
2019-03-29T02:15:38.958Z,1027.36
2019-03-29T02:17:31.968Z,1027.38
2019-03-29T02:18:32.011Z,1027.35
2019-03-29T02:20:25.025Z,1027.36
2019-03-29T02:21:25.051Z,1027.28
2019-03-29T02:23:18.056Z,1027.24
2019-03-29T02:24:18.082Z,1027.23
2019-03-29T02:26:11.081Z,1027.20
2019-03-29T02:27:11.119Z,1027.19
2019-03-29T02:29:04.115Z,1027.20
2019-03-29T02:30:04.553Z,1027.21
2019-03-29T02:31:57.217Z,1027.20
2019-03-29T02:32:57.190Z,1027.19
2019-03-29T02:34:50.196Z,1027.16
2019-03-29T02:35:50.241Z,1027.15
2019-03-29T02:37:43.253Z,1027.14
2019-03-29T02:38:55.232Z,1027.12
2019-03-29T02:40:36.287Z,1027.13
2019-03-29T02:41:36.334Z,1027.15
2019-03-29T02:43:29.339Z,1027.16
2019-03-29T02:44:29.370Z,1027.13
2019-03-29T02:46:22.384Z,1027.19
2019-03-29T02:47:22.406Z,1027.19
2019-03-29T02:49:15.414Z,1027.21
2019-03-29T02:50:15.449Z,1027.19
2019-03-29T02:52:08.460Z,1027.15
2019-03-29T02:53:08.505Z,1027.12
2019-03-29T02:55:01.502Z,1027.11
2019-03-29T02:56:01.570Z,1027.11
2019-03-29T02:57:54.559Z,1027.10
2019-03-29T02:58:54.594Z,1027.09
2019-03-29T03:00:48.275Z,1027.13
2019-03-29T03:01:47.635Z,1027.13
2019-03-29T03:03:40.647Z,1027.09
2019-03-29T03:04:40.675Z,1027.10
2019-03-29T03:06:33.650Z,1027.11
2019-03-29T03:07:33.708Z,1027.11
2019-03-29T03:09:26.719Z,1027.11
2019-03-29T03:10:26.744Z,1027.16
2019-03-29T03:12:19.726Z,1027.12
2019-03-29T03:13:19.784Z,1027.16
2019-03-29T03:15:12.789Z,1027.09
2019-03-29T03:16:12.816Z,1027.14
2019-03-29T03:18:05.795Z,1027.09
2019-03-29T03:19:05.857Z,1027.06
2019-03-29T03:20:58.867Z,1027.09
2019-03-29T03:21:58.893Z,1027.10
2019-03-29T03:23:51.869Z,1027.11
2019-03-29T03:24:51.924Z,1027.09
2019-03-29T03:26:44.939Z,1027.16
2019-03-29T03:27:44.978Z,1027.12
2019-03-29T03:29:37.967Z,1027.13
2019-03-29T03:30:38.007Z,1027.14
2019-03-29T03:32:31.013Z,1027.20
2019-03-29T03:33:31.043Z,1027.17
2019-03-29T03:35:24.040Z,1027.13
2019-03-29T03:36:24.098Z,1027.14
2019-03-29T03:38:17.102Z,1027.18
2019-03-29T03:39:30.605Z,1027.15
2019-03-29T03:41:10.117Z,1027.16
2019-03-29T03:42:10.180Z,1027.20
2019-03-29T03:44:03.201Z,1027.15
2019-03-29T03:45:03.211Z,1027.13
2019-03-29T03:46:56.184Z,1027.13
2019-03-29T03:47:56.259Z,1027.13
2019-03-29T03:49:49.237Z,1027.13
2019-03-29T03:50:49.276Z,1027.14
2019-03-29T03:52:42.250Z,1027.13
2019-03-29T03:53:42.310Z,1027.14
2019-03-29T03:55:35.310Z,1027.10
2019-03-29T03:56:35.338Z,1027.11
2019-03-29T03:58:28.314Z,1027.07
2019-03-29T03:59:28.375Z,1027.04
2019-03-29T04:01:21.380Z,1027.10
2019-03-29T04:02:21.418Z,1027.10
2019-03-29T04:04:14.419Z,1027.06
2019-03-29T04:05:14.459Z,1027.06
2019-03-29T04:07:07.971Z,1027.03
2019-03-29T04:08:07.998Z,1027.01
2019-03-29T04:10:00.978Z,1027.04
2019-03-29T04:11:01.035Z,1027.07
2019-03-29T04:12:54.032Z,1027.05
2019-03-29T04:13:54.068Z,1027.07
2019-03-29T04:15:47.045Z,1027.04
2019-03-29T04:16:47.104Z,1027.04
2019-03-29T04:18:40.107Z,1027.06
2019-03-29T04:19:40.132Z,1027.04
2019-03-29T04:21:33.125Z,1027.06
2019-03-29T04:22:33.168Z,1027.06
2019-03-29T04:24:26.186Z,1027.05
2019-03-29T04:25:26.214Z,1027.02
2019-03-29T04:27:19.217Z,1027.01
2019-03-29T04:28:19.272Z,1027.03
2019-03-29T04:30:12.275Z,1027.02
2019-03-29T04:31:12.310Z,1027.04
2019-03-29T04:33:05.285Z,1027.06
2019-03-29T04:34:05.348Z,1027.02
2019-03-29T04:35:58.359Z,1027.05
2019-03-29T04:36:58.379Z,1026.96
2019-03-29T04:38:51.368Z,1026.99
2019-03-29T04:40:06.310Z,1026.98
2019-03-29T04:41:44.436Z,1026.99
2019-03-29T04:42:44.481Z,1026.99
2019-03-29T04:44:37.460Z,1027.00
2019-03-29T04:45:37.521Z,1027.03
2019-03-29T04:47:30.521Z,1027.02
2019-03-29T04:48:30.556Z,1027.03
2019-03-29T04:50:23.522Z,1027.02
2019-03-29T04:51:23.582Z,1027.02
2019-03-29T04:53:16.642Z,1027.02
2019-03-29T04:54:16.681Z,1027.04
2019-03-29T04:56:09.653Z,1026.99
2019-03-29T04:57:09.709Z,1027.02
2019-03-29T04:59:02.709Z,1027.01
2019-03-29T05:00:02.744Z,1027.02
2019-03-29T05:01:55.729Z,1027.05
2019-03-29T05:02:55.779Z,1026.96
2019-03-29T05:04:48.786Z,1026.96
2019-03-29T05:05:48.813Z,1026.94
2019-03-29T05:07:42.374Z,1027.00
2019-03-29T05:08:42.366Z,1027.00
2019-03-29T05:10:35.362Z,1027.02
2019-03-29T05:11:35.472Z,1027.00
2019-03-29T05:13:28.371Z,1027.02
2019-03-29T05:14:28.453Z,1026.96
2019-03-29T05:16:21.427Z,1026.92
2019-03-29T05:17:21.473Z,1026.90
2019-03-29T05:19:14.446Z,1026.90
2019-03-29T05:20:14.499Z,1026.91
2019-03-29T05:22:07.508Z,1026.92
2019-03-29T05:23:07.527Z,1026.90
2019-03-29T05:25:00.509Z,1026.90
2019-03-29T05:26:00.566Z,1026.93
2019-03-29T05:27:53.568Z,1026.94
2019-03-29T05:28:53.600Z,1026.93
2019-03-29T05:30:46.575Z,1026.96
2019-03-29T05:31:46.630Z,1026.92
2019-03-29T05:33:39.637Z,1026.93
2019-03-29T05:34:39.665Z,1026.89
2019-03-29T05:36:33.642Z,1026.85
2019-03-29T05:37:33.700Z,1026.83
2019-03-29T05:39:26.696Z,1026.87
2019-03-29T05:40:34.905Z,1026.90
2019-03-29T05:42:19.717Z,1026.89
2019-03-29T05:43:19.802Z,1026.88
2019-03-29T05:45:12.782Z,1026.87
2019-03-29T05:46:12.806Z,1026.87
2019-03-29T05:48:05.782Z,1026.81
2019-03-29T05:49:05.837Z,1026.85
2019-03-29T05:50:58.841Z,1026.81
2019-03-29T05:51:58.871Z,1026.80
2019-03-29T05:53:51.847Z,1026.79
2019-03-29T05:54:51.906Z,1026.82
2019-03-29T05:56:44.958Z,1026.86
2019-03-29T05:57:45.000Z,1026.87
2019-03-29T05:59:37.965Z,1026.88
2019-03-29T06:00:38.018Z,1026.83
2019-03-29T06:02:31.023Z,1026.88
2019-03-29T06:03:31.048Z,1026.89
2019-03-29T06:05:24.036Z,1026.87
2019-03-29T06:06:24.083Z,1026.89
2019-03-29T06:08:17.080Z,1026.89
2019-03-29T06:09:17.119Z,1026.91
2019-03-29T06:11:10.097Z,1026.88
2019-03-29T06:12:10.148Z,1026.89
2019-03-29T06:14:03.177Z,1026.90
2019-03-29T06:15:03.190Z,1026.90
2019-03-29T06:16:56.674Z,1026.87
2019-03-29T06:17:56.725Z,1026.88
2019-03-29T06:19:49.744Z,1026.90
2019-03-29T06:20:49.754Z,1026.88
2019-03-29T06:22:42.737Z,1026.90
2019-03-29T06:23:42.789Z,1026.92
2019-03-29T06:25:35.786Z,1026.97
2019-03-29T06:26:35.827Z,1026.98
2019-03-29T06:28:30.103Z,1026.99
2019-03-29T06:29:29.131Z,1026.99
2019-03-29T06:31:21.866Z,1026.95
2019-03-29T06:32:21.911Z,1026.97
2019-03-29T06:34:14.883Z,1026.97
2019-03-29T06:35:15.010Z,1026.98
2019-03-29T06:37:07.992Z,1026.96
2019-03-29T06:38:08.003Z,1026.93
2019-03-29T06:40:00.986Z,1026.91
2019-03-29T06:41:03.161Z,1026.95
2019-03-29T06:42:54.033Z,1026.97
2019-03-29T06:43:54.071Z,1027.01
2019-03-29T06:45:48.341Z,1027.03
2019-03-29T06:46:47.110Z,1027.03
2019-03-29T06:48:40.089Z,1027.02
2019-03-29T06:49:40.173Z,1027.00
2019-03-29T06:51:33.152Z,1027.09
2019-03-29T06:52:33.177Z,1027.09
2019-03-29T06:54:26.156Z,1027.09
2019-03-29T06:55:26.286Z,1027.11
2019-03-29T06:57:19.222Z,1027.17
2019-03-29T06:58:19.261Z,1027.18
2019-03-29T07:00:12.240Z,1027.21
2019-03-29T07:01:12.298Z,1027.24
2019-03-29T07:03:05.293Z,1027.44
2019-03-29T07:04:05.347Z,1027.55
2019-03-29T07:05:58.361Z,1028.08
2019-03-29T07:06:58.387Z,1028.43
2019-03-29T07:08:51.370Z,1028.81
2019-03-29T07:09:51.421Z,1028.97
2019-03-29T07:11:44.472Z,1029.47
2019-03-29T07:12:44.525Z,1030.10
2019-03-29T07:14:37.504Z,1031.11
2019-03-29T07:15:37.556Z,1030.98
2019-03-29T07:17:31.072Z,1029.96
2019-03-29T07:18:31.114Z,1029.60
2019-03-29T07:20:24.099Z,1029.28
2019-03-29T07:21:24.165Z,1029.09
2019-03-29T07:23:17.179Z,1028.73
2019-03-29T07:24:17.227Z,1028.57
2019-03-29T07:26:10.217Z,1028.35
2019-03-29T07:27:10.283Z,1028.28
2019-03-29T07:29:03.296Z,1028.09
2019-03-29T07:30:03.353Z,1028.06
2019-03-29T07:31:56.373Z,1027.95
2019-03-29T07:32:56.409Z,1027.91
2019-03-29T07:34:49.444Z,1027.78
2019-03-29T07:35:49.465Z,1027.79
2019-03-29T07:37:42.470Z,1027.63
2019-03-29T07:38:42.519Z,1027.61
2019-03-29T07:40:35.538Z,1027.60
2019-03-29T07:41:35.580Z,1027.57
2019-03-29T07:43:28.596Z,1027.55
2019-03-29T07:44:28.641Z,1027.57
2019-03-29T07:46:21.634Z,1027.56
2019-03-29T07:47:21.700Z,1027.54
2019-03-29T07:49:14.716Z,1027.58
2019-03-29T07:50:14.767Z,1027.55
2019-03-29T07:52:07.770Z,1027.52
2019-03-29T07:53:07.843Z,1027.52
2019-03-29T07:55:00.855Z,1027.57
2019-03-29T07:56:00.895Z,1027.61
2019-03-29T07:57:53.904Z,1027.64
2019-03-29T07:58:53.966Z,1027.64
2019-03-29T08:00:46.982Z,1027.60
2019-03-29T08:01:47.043Z,1027.58
2019-03-29T08:03:40.046Z,1027.58
2019-03-29T08:04:40.109Z,1027.52
2019-03-29T08:06:33.131Z,1027.53
2019-03-29T08:07:33.566Z,1027.53
2019-03-29T08:09:26.318Z,1027.43
2019-03-29T08:10:31.105Z,1027.46
2019-03-29T08:12:19.312Z,1027.50
2019-03-29T08:13:19.342Z,1027.48
2019-03-29T08:15:12.350Z,1027.49
2019-03-29T08:16:12.404Z,1027.48
2019-03-29T08:18:05.429Z,1027.45
2019-03-29T08:19:05.477Z,1027.49
2019-03-29T08:20:58.483Z,1027.46
2019-03-29T08:21:58.554Z,1027.50
2019-03-29T08:23:51.581Z,1027.48
2019-03-29T08:24:51.636Z,1027.42
2019-03-29T08:26:44.633Z,1027.44
2019-03-29T08:27:44.704Z,1027.43
2019-03-29T08:29:37.731Z,1027.46
2019-03-29T08:30:37.787Z,1027.44
2019-03-29T08:32:30.787Z,1027.43
2019-03-29T08:33:30.858Z,1027.46
2019-03-29T08:35:23.883Z,1027.50
2019-03-29T08:36:23.930Z,1027.48
2019-03-29T08:38:16.944Z,1027.46
2019-03-29T08:39:27.201Z,1027.47
2019-03-29T08:41:10.029Z,1027.44
2019-03-29T08:42:10.078Z,1027.45
2019-03-29T08:44:03.126Z,1027.42
2019-03-29T08:45:03.168Z,1027.45
2019-03-29T08:46:56.214Z,1027.47
2019-03-29T08:47:56.255Z,1027.49
2019-03-29T08:49:49.252Z,1027.48
2019-03-29T08:50:49.323Z,1027.43
2019-03-29T08:52:42.353Z,1027.45
2019-03-29T08:53:42.396Z,1027.42
2019-03-29T08:55:45.707Z,1027.39
2019-03-29T08:56:35.499Z,1027.45
2019-03-29T08:58:28.505Z,1027.43
2019-03-29T08:59:28.572Z,1027.41
2019-03-29T09:01:21.614Z,1027.34
2019-03-29T09:02:24.912Z,1027.36
2019-03-29T09:04:14.696Z,1027.31
2019-03-29T09:05:14.735Z,1027.30
2019-03-29T09:07:07.746Z,1027.21
2019-03-29T09:08:07.812Z,1027.19
2019-03-29T09:10:00.845Z,1027.09
2019-03-29T09:11:00.883Z,1027.06
2019-03-29T09:12:53.890Z,1027.01
2019-03-29T09:13:53.960Z,1026.97
2019-03-29T09:15:46.992Z,1026.93
2019-03-29T09:16:47.069Z,1026.98
2019-03-29T09:18:40.035Z,1026.99
2019-03-29T09:19:40.099Z,1026.99
2019-03-29T09:21:33.114Z,1026.92
2019-03-29T09:22:33.162Z,1026.90
2019-03-29T09:24:26.294Z,1026.89
2019-03-29T09:25:26.331Z,1026.87
2019-03-29T09:27:19.243Z,1026.87
2019-03-29T09:28:19.307Z,1026.85
2019-03-29T09:30:12.363Z,1026.80
2019-03-29T09:31:12.358Z,1026.82
2019-03-29T09:33:05.373Z,1026.74
2019-03-29T09:34:05.435Z,1026.74
2019-03-29T09:35:58.472Z,1026.70
2019-03-29T09:37:00.095Z,1026.72
2019-03-29T09:38:51.499Z,1026.69
2019-03-29T09:39:51.567Z,1026.68
2019-03-29T09:41:44.589Z,1026.64
2019-03-29T09:42:44.624Z,1026.59
2019-03-29T09:44:37.622Z,1026.59
2019-03-29T09:45:40.843Z,1026.59
2019-03-29T09:47:38.228Z,1026.57
2019-03-29T09:48:31.836Z,1026.59
2019-03-29T09:50:23.756Z,1026.58
2019-03-29T09:51:23.806Z,1026.57
2019-03-29T09:53:16.783Z,1026.52
2019-03-29T09:54:20.131Z,1026.51
2019-03-29T09:56:09.858Z,1026.50
2019-03-29T09:57:14.889Z,1026.47
2019-03-29T09:59:02.893Z,1026.44
2019-03-29T10:00:17.383Z,1026.44
2019-03-29T10:01:55.973Z,1026.42
2019-03-29T10:02:56.008Z,1026.39
2019-03-29T10:04:48.996Z,1026.42
2019-03-29T10:05:49.056Z,1026.41
2019-03-29T10:07:42.079Z,1026.40
2019-03-29T10:08:42.113Z,1026.32
2019-03-29T10:10:35.117Z,1026.33
2019-03-29T10:11:35.167Z,1026.25
2019-03-29T10:13:28.204Z,1026.26
2019-03-29T10:14:28.252Z,1026.24
2019-03-29T10:16:21.258Z,1026.26
2019-03-29T10:17:21.289Z,1026.21
2019-03-29T10:19:14.277Z,1026.18
2019-03-29T10:20:14.342Z,1026.16
2019-03-29T10:22:07.423Z,1026.12
2019-03-29T10:23:07.399Z,1026.08
2019-03-29T10:25:02.205Z,1026.09
2019-03-29T10:26:00.458Z,1026.04
2019-03-29T10:27:53.466Z,1026.03
2019-03-29T10:28:53.517Z,1025.97
2019-03-29T10:30:47.169Z,1025.97
2019-03-29T10:31:46.567Z,1025.91
2019-03-29T10:33:39.578Z,1025.87
2019-03-29T10:34:39.617Z,1025.84
2019-03-29T10:36:32.607Z,1025.81
2019-03-29T10:37:32.670Z,1025.84
2019-03-29T10:39:26.488Z,1025.82
2019-03-29T10:40:25.812Z,1025.79
2019-03-29T10:42:18.727Z,1025.77
2019-03-29T10:43:18.769Z,1025.72
2019-03-29T10:45:11.768Z,1025.71
2019-03-29T10:46:11.816Z,1025.72
2019-03-29T10:48:04.829Z,1025.69
2019-03-29T10:49:04.863Z,1025.69
2019-03-29T10:50:57.871Z,1025.60
2019-03-29T10:51:57.936Z,1025.58
2019-03-29T10:53:50.912Z,1025.59
2019-03-29T10:54:50.967Z,1025.56
2019-03-29T10:56:43.979Z,1025.50
2019-03-29T10:57:44.019Z,1025.50
2019-03-29T10:59:37.017Z,1025.47
2019-03-29T11:00:37.063Z,1025.50
2019-03-29T11:02:30.211Z,1025.48
2019-03-29T11:03:30.128Z,1025.46
2019-03-29T11:05:23.110Z,1025.48
2019-03-29T11:06:23.162Z,1025.49
2019-03-29T11:08:16.189Z,1025.47
2019-03-29T11:09:16.226Z,1025.44
2019-03-29T11:11:09.208Z,1025.41
2019-03-29T11:12:09.270Z,1025.38
2019-03-29T11:14:02.289Z,1025.33
2019-03-29T11:15:02.321Z,1025.34
2019-03-29T11:16:55.863Z,1025.28
2019-03-29T11:17:55.876Z,1025.29
2019-03-29T11:19:48.875Z,1025.30
2019-03-29T11:20:48.935Z,1025.28
2019-03-29T11:22:42.100Z,1025.26
2019-03-29T11:23:42.006Z,1025.24
2019-03-29T11:25:35.017Z,1025.22
2019-03-29T11:26:35.034Z,1025.19
2019-03-29T11:28:28.079Z,1025.17
2019-03-29T11:29:28.101Z,1025.14
2019-03-29T11:31:21.100Z,1025.19
2019-03-29T11:32:21.139Z,1025.09
2019-03-29T11:34:14.147Z,1025.12
2019-03-29T11:35:14.187Z,1025.11
2019-03-29T11:37:07.230Z,1025.13
2019-03-29T11:38:07.263Z,1025.09
2019-03-29T11:40:00.296Z,1025.07
2019-03-29T11:41:00.287Z,1025.01
2019-03-29T11:42:53.271Z,1025.06
2019-03-29T11:43:53.375Z,1025.02
2019-03-29T11:45:46.337Z,1025.01
2019-03-29T11:46:46.385Z,1025.01
2019-03-29T11:48:39.388Z,1024.93
2019-03-29T11:49:39.425Z,1024.90
2019-03-29T11:51:32.449Z,1024.88
2019-03-29T11:52:33.939Z,1024.86
2019-03-29T11:54:25.469Z,1024.86
2019-03-29T11:55:25.550Z,1024.81
2019-03-29T11:57:18.654Z,1024.80
2019-03-29T11:58:18.584Z,1024.82
2019-03-29T12:00:11.573Z,1024.73
2019-03-29T12:01:11.649Z,1024.75
2019-03-29T12:03:04.657Z,1024.77
2019-03-29T12:04:04.682Z,1024.75
2019-03-29T12:05:57.669Z,1024.72
2019-03-29T12:06:57.729Z,1024.71
2019-03-29T12:08:50.749Z,1024.65
2019-03-29T12:09:50.788Z,1024.62
2019-03-29T12:11:43.773Z,1024.61
2019-03-29T12:12:43.834Z,1024.61
2019-03-29T12:14:36.856Z,1024.55
2019-03-29T12:15:36.885Z,1024.58
2019-03-29T12:17:31.400Z,1024.53
2019-03-29T12:18:31.460Z,1024.54
2019-03-29T12:20:24.474Z,1024.51
2019-03-29T12:21:24.517Z,1024.54
2019-03-29T12:23:17.496Z,1024.46
2019-03-29T12:24:17.553Z,1024.44
2019-03-29T12:26:10.560Z,1024.40
2019-03-29T12:27:10.602Z,1024.42
2019-03-29T12:29:03.589Z,1024.35
2019-03-29T12:30:03.648Z,1024.32
2019-03-29T12:31:56.658Z,1024.35
2019-03-29T12:32:56.697Z,1024.31
2019-03-29T12:34:49.686Z,1024.33
2019-03-29T12:35:49.747Z,1024.30
2019-03-29T12:37:42.775Z,1024.24
2019-03-29T12:38:42.797Z,1024.27
2019-03-29T12:40:35.788Z,1024.24
2019-03-29T12:41:35.844Z,1024.24
2019-03-29T12:43:28.861Z,1024.23
2019-03-29T12:44:28.897Z,1024.21
2019-03-29T12:46:21.904Z,1024.18
2019-03-29T12:47:21.946Z,1024.15
2019-03-29T12:49:14.951Z,1024.04
2019-03-29T12:50:14.992Z,1024.10
2019-03-29T12:52:07.999Z,1024.07
2019-03-29T12:53:08.045Z,1024.09
2019-03-29T12:55:01.062Z,1024.01
2019-03-29T12:56:01.086Z,1024.00
2019-03-29T12:57:54.106Z,1024.02
2019-03-29T12:58:54.142Z,1023.99
2019-03-29T13:00:47.153Z,1023.99
2019-03-29T13:01:47.233Z,1024.02
2019-03-29T13:03:40.195Z,1023.99
2019-03-29T13:04:40.249Z,1023.97
2019-03-29T13:06:33.264Z,1023.90
2019-03-29T13:07:33.298Z,1023.88
2019-03-29T13:09:26.286Z,1023.87
2019-03-29T13:10:26.348Z,1023.88
2019-03-29T13:12:19.388Z,1023.84
2019-03-29T13:13:19.396Z,1023.82
2019-03-29T13:15:12.383Z,1023.83
2019-03-29T13:16:12.451Z,1023.79
2019-03-29T13:18:05.498Z,1023.81
2019-03-29T13:19:05.539Z,1023.80
2019-03-29T13:20:58.632Z,1023.75
2019-03-29T13:21:58.676Z,1023.77
2019-03-29T13:23:51.671Z,1023.73
2019-03-29T13:24:51.727Z,1023.69
2019-03-29T13:26:44.738Z,1023.68
2019-03-29T13:27:44.782Z,1023.64
2019-03-29T13:29:37.805Z,1023.59
2019-03-29T13:30:37.844Z,1023.58
2019-03-29T13:32:33.391Z,1023.54
2019-03-29T13:33:30.940Z,1023.51
2019-03-29T13:35:23.899Z,1023.48
2019-03-29T13:36:23.955Z,1023.47
2019-03-29T13:38:20.323Z,1023.44
2019-03-29T13:39:17.001Z,1023.43
2019-03-29T13:41:10.010Z,1023.41
2019-03-29T13:42:10.078Z,1023.40
2019-03-29T13:44:03.084Z,1023.39
2019-03-29T13:45:03.122Z,1023.36
2019-03-29T13:46:56.113Z,1023.31
2019-03-29T13:47:56.246Z,1023.32
2019-03-29T13:49:49.185Z,1023.30
2019-03-29T13:50:49.234Z,1023.28
2019-03-29T13:52:42.250Z,1023.31
2019-03-29T13:53:42.287Z,1023.28
2019-03-29T13:55:35.295Z,1023.25
2019-03-29T13:56:35.341Z,1023.26
2019-03-29T13:58:28.333Z,1023.16
2019-03-29T13:59:31.610Z,1023.15
2019-03-29T14:01:21.412Z,1023.17
2019-03-29T14:02:21.442Z,1023.14
2019-03-29T14:04:14.436Z,1023.11
2019-03-29T14:05:14.548Z,1023.12
2019-03-29T14:07:07.510Z,1023.06
2019-03-29T14:08:07.555Z,1023.07
2019-03-29T14:10:00.604Z,1023.02
2019-03-29T14:11:00.602Z,1022.99
2019-03-29T14:12:53.590Z,1022.98
2019-03-29T14:13:53.651Z,1022.99
2019-03-29T14:15:46.661Z,1022.90
2019-03-29T14:16:46.703Z,1022.88
2019-03-29T14:18:40.326Z,1022.86
2019-03-29T14:20:52.804Z,1022.86
2019-03-29T14:21:52.799Z,1022.86
2019-03-29T14:23:45.806Z,1022.84
2019-03-29T14:24:45.847Z,1022.87
2019-03-29T14:26:39.865Z,1022.84
2019-03-29T14:27:38.919Z,1022.82
2019-03-29T14:29:31.925Z,1022.78
2019-03-29T14:30:31.966Z,1022.76
2019-03-29T14:32:24.981Z,1022.71
2019-03-29T14:33:25.017Z,1022.68
2019-03-29T14:35:18.022Z,1022.70
2019-03-29T14:36:18.070Z,1022.62
2019-03-29T14:38:11.064Z,1022.68
2019-03-29T14:39:11.142Z,1022.61
2019-03-29T14:41:04.150Z,1022.57
2019-03-29T14:42:04.189Z,1022.56
2019-03-29T14:43:57.197Z,1022.54
2019-03-29T14:44:57.234Z,1022.53
2019-03-29T14:46:50.243Z,1022.51
2019-03-29T14:47:50.288Z,1022.53
2019-03-29T14:49:43.285Z,1022.48
2019-03-29T14:50:43.347Z,1022.46
2019-03-29T14:52:36.357Z,1022.45
2019-03-29T14:53:36.397Z,1022.42
2019-03-29T14:55:29.390Z,1022.43
2019-03-29T14:56:29.449Z,1022.36
2019-03-29T14:58:22.478Z,1022.38
2019-03-29T14:59:22.509Z,1022.35
2019-03-29T15:01:15.493Z,1022.35
2019-03-29T15:02:15.565Z,1022.30
2019-03-29T15:04:08.573Z,1022.31
2019-03-29T15:05:08.612Z,1022.29
2019-03-29T15:07:01.667Z,1022.26
2019-03-29T15:08:01.663Z,1022.22
2019-03-29T15:09:54.682Z,1022.21
2019-03-29T15:10:54.726Z,1022.19
2019-03-29T15:12:47.764Z,1022.19
2019-03-29T15:13:47.832Z,1022.18
2019-03-29T15:15:40.854Z,1022.20
2019-03-29T15:16:40.891Z,1022.19
2019-03-29T15:18:34.412Z,1022.11
2019-03-29T15:19:34.438Z,1022.13
2019-03-29T15:21:27.454Z,1022.10
2019-03-29T15:22:27.492Z,1022.09
2019-03-29T15:24:20.478Z,1022.07
2019-03-29T15:25:20.538Z,1022.04
2019-03-29T15:27:13.628Z,1022.06
2019-03-29T15:28:13.670Z,1021.98
2019-03-29T15:30:06.702Z,1021.98
2019-03-29T15:31:06.722Z,1021.96
2019-03-29T15:32:59.708Z,1021.93
2019-03-29T15:33:59.768Z,1021.94
2019-03-29T15:35:52.795Z,1021.88
2019-03-29T15:36:52.821Z,1021.89
2019-03-29T15:38:45.808Z,1021.87
2019-03-29T15:39:45.867Z,1021.82
2019-03-29T15:41:38.893Z,1021.81
2019-03-29T15:42:38.920Z,1021.81
2019-03-29T15:44:31.918Z,1021.79
2019-03-29T15:45:31.975Z,1021.82
2019-03-29T15:47:24.989Z,1021.79
2019-03-29T15:48:25.027Z,1021.72
2019-03-29T15:50:18.020Z,1021.71
2019-03-29T15:51:18.082Z,1021.66
2019-03-29T15:53:11.089Z,1021.66
2019-03-29T15:54:11.139Z,1021.64
2019-03-29T15:56:04.139Z,1021.60
2019-03-29T15:57:04.184Z,1021.64
2019-03-29T15:58:57.188Z,1021.59
2019-03-29T15:59:57.231Z,1021.59
2019-03-29T16:01:50.243Z,1021.55
2019-03-29T16:02:50.303Z,1021.50
2019-03-29T16:04:43.346Z,1021.50
2019-03-29T16:05:43.339Z,1021.47
2019-03-29T16:07:36.349Z,1021.46
2019-03-29T16:08:36.391Z,1021.42
2019-03-29T16:10:29.382Z,1021.42
2019-03-29T16:11:30.366Z,1021.39
2019-03-29T16:13:22.460Z,1021.38
2019-03-29T16:14:22.493Z,1021.38
2019-03-29T16:16:15.477Z,1021.35
2019-03-29T16:17:15.546Z,1021.33
2019-03-29T16:19:08.551Z,1021.32
2019-03-29T16:20:08.603Z,1021.32
2019-03-29T16:22:01.612Z,1021.33
2019-03-29T16:23:01.651Z,1021.36
2019-03-29T16:24:54.650Z,1021.30
2019-03-29T16:25:54.698Z,1021.28
2019-03-29T16:27:47.721Z,1021.25
2019-03-29T16:28:47.795Z,1021.23
2019-03-29T16:30:40.753Z,1021.23
2019-03-29T16:31:40.816Z,1021.25
2019-03-29T16:33:33.827Z,1021.23
2019-03-29T16:34:33.867Z,1021.19
2019-03-29T16:36:27.386Z,1021.17
2019-03-29T16:37:27.427Z,1021.18
2019-03-29T16:39:20.413Z,1021.15
2019-03-29T16:40:20.474Z,1021.15
2019-03-29T16:42:13.488Z,1021.13
2019-03-29T16:43:13.530Z,1021.11
2019-03-29T16:45:06.553Z,1021.12
2019-03-29T16:46:06.585Z,1021.13
2019-03-29T16:47:59.573Z,1021.13
2019-03-29T16:48:59.652Z,1021.13
2019-03-29T16:50:53.158Z,1021.13
2019-03-29T16:51:53.189Z,1021.09
2019-03-29T16:53:46.201Z,1021.08
2019-03-29T16:54:46.242Z,1021.11
2019-03-29T16:56:39.252Z,1021.04
2019-03-29T16:57:39.295Z,1021.04
2019-03-29T16:59:32.311Z,1020.99
2019-03-29T17:00:32.343Z,1020.99
2019-03-29T17:02:25.337Z,1020.99
2019-03-29T17:03:25.391Z,1020.99
2019-03-29T17:05:18.392Z,1021.00
2019-03-29T17:06:18.445Z,1020.97
2019-03-29T17:08:11.451Z,1020.94
2019-03-29T17:09:11.507Z,1020.98
2019-03-29T17:11:04.513Z,1020.93
2019-03-29T17:12:04.555Z,1020.89
2019-03-29T17:13:57.571Z,1020.89
2019-03-29T17:14:57.611Z,1020.86
2019-03-29T17:16:52.922Z,1020.85
2019-03-29T17:17:50.661Z,1020.89
2019-03-29T17:19:43.648Z,1020.83
2019-03-29T17:20:43.718Z,1020.84
2019-03-29T17:22:36.749Z,1020.83
2019-03-29T17:23:36.787Z,1020.81
2019-03-29T17:25:29.814Z,1020.81
2019-03-29T17:26:29.874Z,1020.78